createdAt,value
2018-09-19T00:00:25.694Z,0.00
2018-09-19T00:01:25.684Z,0.00
2018-09-19T00:02:25.707Z,0.00
2018-09-19T00:03:25.656Z,0.00
2018-09-19T00:04:25.651Z,0.00
2018-09-19T00:05:25.639Z,0.00
2018-09-19T00:06:25.622Z,0.00
2018-09-19T00:07:25.620Z,0.00
2018-09-19T00:08:25.630Z,0.00
2018-09-19T00:09:25.622Z,0.00
2018-09-19T00:10:25.583Z,0.00
2018-09-19T00:11:25.565Z,0.00
2018-09-19T06:07:02.021Z,3616.00
2018-09-19T06:08:01.990Z,3756.00
2018-09-19T06:14:05.983Z,4712.00
2018-09-19T06:15:05.955Z,4820.00
2018-09-19T06:19:09.873Z,5496.00
2018-09-19T06:20:09.839Z,5692.00
2018-09-19T06:21:09.830Z,5860.00
2018-09-19T06:22:09.816Z,6468.00
2018-09-19T06:23:09.802Z,7188.00
2018-09-19T06:24:09.822Z,7460.00
2018-09-19T06:25:09.778Z,7896.00
2018-09-19T06:26:09.767Z,8760.00
2018-09-19T06:27:09.765Z,10396.00
2018-09-19T06:28:09.748Z,12884.00
2018-09-19T06:29:09.736Z,15584.00
2018-09-19T06:30:09.744Z,15552.00
2018-09-19T06:31:09.704Z,13908.00
2018-09-19T06:32:09.710Z,13012.00
2018-09-19T06:33:09.844Z,12772.00
2018-09-19T06:34:09.678Z,12668.00
2018-09-19T06:35:09.692Z,13088.00
2018-09-19T06:36:09.656Z,13368.00
2018-09-19T06:37:09.697Z,13608.00
2018-09-19T06:38:09.627Z,13684.00
2018-09-19T06:39:09.618Z,14396.00
2018-09-19T06:40:09.674Z,15712.00
2018-09-19T06:41:09.625Z,17152.00
2018-09-19T06:42:09.591Z,17632.00
2018-09-19T06:43:09.570Z,18176.00
2018-09-19T06:44:09.561Z,19776.00
2018-09-19T06:45:09.552Z,21152.00
2018-09-19T06:46:09.535Z,23328.00
2018-09-19T06:47:09.556Z,24736.00
2018-09-19T06:48:09.514Z,24640.00
2018-09-19T06:49:09.503Z,24320.00
2018-09-19T06:50:09.496Z,26016.00
2018-09-19T06:51:09.475Z,29216.00
2018-09-19T06:52:09.639Z,30240.00
2018-09-19T06:53:09.452Z,25952.00
2018-09-19T06:54:09.440Z,25536.00
2018-09-19T06:55:09.442Z,30144.00
2018-09-19T06:56:09.428Z,34560.00
2018-09-19T06:57:09.412Z,34880.00
2018-09-19T06:58:09.426Z,33408.00
2018-09-19T06:59:09.382Z,34240.00
2018-09-19T07:00:09.375Z,33056.00
2018-09-19T07:01:09.364Z,31424.00
2018-09-19T07:02:09.356Z,34912.00
2018-09-19T07:03:09.356Z,36864.00
2018-09-19T07:04:09.336Z,32704.00
2018-09-19T07:05:09.312Z,30400.00
2018-09-19T07:06:09.299Z,30720.00
2018-09-19T07:07:09.299Z,31872.00
2018-09-19T07:08:09.310Z,33888.00
2018-09-19T07:09:09.275Z,34848.00
2018-09-19T07:10:09.262Z,32864.00
2018-09-19T07:11:09.250Z,29536.00
2018-09-19T07:12:09.240Z,24864.00
2018-09-19T07:13:09.222Z,27392.00
2018-09-19T07:14:09.239Z,25760.00
2018-09-19T07:15:09.202Z,15528.00
2018-09-19T07:16:09.190Z,30336.00
2018-09-19T07:17:09.190Z,31328.00
2018-09-19T07:18:09.169Z,28064.00
2018-09-19T07:19:09.183Z,31936.00
2018-09-19T07:20:09.143Z,30080.00
2018-09-19T07:21:09.140Z,22816.00
2018-09-19T07:22:09.124Z,22624.00
2018-09-19T07:23:09.116Z,23232.00
2018-09-19T07:24:09.134Z,27168.00
2018-09-19T07:25:09.108Z,29920.00
2018-09-19T07:26:09.081Z,30400.00
2018-09-19T07:27:09.066Z,31232.00
2018-09-19T07:28:09.051Z,30976.00
2018-09-19T07:29:09.048Z,29056.00
2018-09-19T07:30:09.058Z,27840.00
2018-09-19T07:31:09.083Z,27392.00
2018-09-19T07:32:09.013Z,26656.00
2018-09-19T07:33:08.995Z,26784.00
2018-09-19T07:34:08.984Z,27456.00
2018-09-19T07:35:08.972Z,27904.00
2018-09-19T07:36:08.997Z,29344.00
2018-09-19T07:37:08.949Z,29664.00
2018-09-19T07:38:08.941Z,27680.00
2018-09-19T07:39:08.925Z,25952.00
2018-09-19T07:40:08.960Z,27104.00
2018-09-19T07:41:08.926Z,29088.00
2018-09-19T07:42:08.898Z,30272.00
2018-09-19T07:43:08.879Z,31136.00
2018-09-19T07:44:08.873Z,31360.00
2018-09-19T07:45:08.863Z,29920.00
2018-09-19T07:46:08.879Z,28224.00
2018-09-19T07:47:08.843Z,29440.00
2018-09-19T07:48:08.831Z,30784.00
2018-09-19T07:49:08.816Z,29344.00
2018-09-19T07:50:08.799Z,29600.00
2018-09-19T07:51:08.792Z,31712.00
2018-09-19T07:52:08.808Z,31232.00
2018-09-19T07:53:08.770Z,30752.00
2018-09-19T07:54:08.772Z,30720.00
2018-09-19T07:55:08.786Z,31520.00
2018-09-19T07:56:08.767Z,30752.00
2018-09-19T07:57:08.721Z,30912.00
2018-09-19T07:58:08.716Z,31744.00
2018-09-19T07:59:08.704Z,33824.00
2018-09-19T08:00:08.700Z,34688.00
2018-09-19T08:01:08.734Z,36576.00
2018-09-19T08:02:08.701Z,39168.00
2018-09-19T08:03:08.660Z,38336.00
2018-09-19T08:04:08.645Z,34720.00
2018-09-19T08:05:08.671Z,33792.00
2018-09-19T08:06:08.660Z,36320.00
2018-09-19T08:07:08.607Z,37440.00
2018-09-19T08:08:08.607Z,37888.00
2018-09-19T08:09:08.628Z,40032.00
2018-09-19T08:10:08.577Z,41056.00
2018-09-19T08:11:08.572Z,40352.00
2018-09-19T08:12:08.574Z,39840.00
2018-09-19T08:13:08.552Z,43072.00
2018-09-19T08:14:08.540Z,48864.00
2018-09-19T08:15:08.519Z,52384.00
2018-09-19T08:16:08.512Z,52544.00
2018-09-19T08:17:08.536Z,51776.00
2018-09-19T08:18:08.499Z,53280.00
2018-09-19T08:19:08.487Z,57312.00
2018-09-19T08:20:08.469Z,61344.00
2018-09-19T08:21:08.459Z,63680.00
2018-09-19T08:22:08.449Z,60960.00
2018-09-19T08:23:08.455Z,52736.00
2018-09-19T08:24:08.420Z,44544.00
2018-09-19T08:25:08.421Z,39552.00
2018-09-19T08:26:08.400Z,36064.00
2018-09-19T08:27:08.393Z,33952.00
2018-09-19T08:28:08.406Z,32736.00
2018-09-19T08:29:08.377Z,31712.00
2018-09-19T08:30:08.354Z,31296.00
2018-09-19T08:31:08.351Z,30592.00
2018-09-19T08:32:08.387Z,29696.00
2018-09-19T08:33:08.353Z,29312.00
2018-09-19T08:34:08.314Z,28544.00
2018-09-19T08:35:08.306Z,25088.00
2018-09-19T08:36:08.296Z,22304.00
2018-09-19T08:37:08.280Z,23360.00
2018-09-19T08:38:08.275Z,25728.00
2018-09-19T08:39:08.284Z,28832.00
2018-09-19T08:40:08.253Z,29248.00
2018-09-19T08:41:08.241Z,29920.00
2018-09-19T08:42:08.226Z,29952.00
2018-09-19T08:43:08.222Z,29696.00
2018-09-19T08:44:08.236Z,29920.00
2018-09-19T08:45:08.199Z,29760.00
2018-09-19T08:46:08.184Z,30176.00
2018-09-19T08:47:08.176Z,30304.00
2018-09-19T08:48:08.182Z,30432.00
2018-09-19T08:49:08.144Z,30368.00
2018-09-19T08:50:08.157Z,30432.00
2018-09-19T08:51:08.133Z,30368.00
2018-09-19T08:52:08.119Z,30272.00
2018-09-19T08:53:08.108Z,30336.00
2018-09-19T08:54:08.105Z,30240.00
2018-09-19T08:55:08.114Z,30208.00
2018-09-19T08:56:08.077Z,30528.00
2018-09-19T08:57:08.101Z,30752.00
2018-09-19T08:58:08.049Z,31104.00
2018-09-19T08:59:08.040Z,30848.00
2018-09-19T09:00:08.055Z,30816.00
2018-09-19T09:01:08.012Z,30784.00
2018-09-19T09:02:08.002Z,31072.00
2018-09-19T09:03:07.999Z,30912.00
2018-09-19T09:04:07.979Z,30848.00
2018-09-19T09:05:07.992Z,30752.00
2018-09-19T09:06:07.985Z,31008.00
2018-09-19T09:07:07.953Z,33088.00
2018-09-19T09:08:07.939Z,38048.00
2018-09-19T09:09:07.932Z,46080.00
2018-09-19T09:10:07.925Z,38720.00
2018-09-19T09:11:07.927Z,53280.00
2018-09-19T09:12:07.912Z,38496.00
2018-09-19T09:13:07.884Z,69184.00
2018-09-19T09:14:07.877Z,71328.00
2018-09-19T09:15:07.870Z,63104.00
2018-09-19T09:16:07.882Z,60096.00
2018-09-19T09:17:07.845Z,61376.00
2018-09-19T09:18:07.834Z,62752.00
2018-09-19T09:19:07.825Z,62560.00
2018-09-19T09:20:07.810Z,63328.00
2018-09-19T09:21:07.803Z,65472.00
2018-09-19T09:22:07.812Z,64800.00
2018-09-19T09:23:07.784Z,62944.00
2018-09-19T09:24:07.764Z,62176.00
2018-09-19T09:25:07.765Z,61760.00
2018-09-19T09:26:07.794Z,63648.00
2018-09-19T09:27:07.838Z,66400.00
2018-09-19T09:28:07.726Z,68928.00
2018-09-19T09:29:07.715Z,68896.00
2018-09-19T09:30:07.707Z,69024.00
2018-09-19T09:31:07.717Z,70272.00
2018-09-19T09:32:07.709Z,68800.00
2018-09-19T09:33:07.677Z,66592.00
2018-09-19T09:34:07.706Z,66016.00
2018-09-19T09:35:07.656Z,69472.00
2018-09-19T09:36:07.649Z,72096.00
2018-09-19T09:37:07.660Z,73088.00
2018-09-19T09:38:07.626Z,73664.00
2018-09-19T09:39:07.605Z,74176.00
2018-09-19T09:40:07.597Z,74784.00
2018-09-19T09:41:07.597Z,73760.00
2018-09-19T09:42:07.585Z,71552.00
2018-09-19T09:43:07.590Z,71680.00
2018-09-19T09:44:07.564Z,70752.00
2018-09-19T09:45:07.547Z,73984.00
2018-09-19T09:46:07.594Z,74816.00
2018-09-19T09:47:07.529Z,65856.00
2018-09-19T09:48:07.539Z,45792.00
2018-09-19T09:49:07.510Z,79392.00
2018-09-19T09:50:07.492Z,79040.00
2018-09-19T09:51:07.486Z,77088.00
2018-09-19T09:52:07.471Z,76384.00
2018-09-19T09:53:07.497Z,75072.00
2018-09-19T09:54:07.451Z,74752.00
2018-09-19T09:55:07.487Z,79456.00
2018-09-19T09:56:07.433Z,80064.00
2018-09-19T09:57:07.417Z,76960.00
2018-09-19T09:58:07.409Z,70816.00
2018-09-19T09:59:07.429Z,68320.00
2018-09-19T10:00:07.388Z,69088.00
2018-09-19T10:01:07.437Z,73792.00
2018-09-19T10:02:07.364Z,81952.00
2018-09-19T10:03:07.356Z,84320.00
2018-09-19T10:04:07.344Z,82272.00
2018-09-19T10:05:07.352Z,85408.00
2018-09-19T10:06:07.326Z,82848.00
2018-09-19T10:07:07.310Z,21184.00
2018-09-19T10:08:07.305Z,84224.00
2018-09-19T10:09:07.292Z,82560.00
2018-09-19T10:10:07.307Z,81792.00
2018-09-19T10:11:07.272Z,81504.00
2018-09-19T10:12:07.259Z,81568.00
2018-09-19T10:13:07.291Z,81088.00
2018-09-19T10:14:07.247Z,82272.00
2018-09-19T10:15:07.227Z,84416.00
2018-09-19T10:16:07.241Z,85312.00
2018-09-19T10:17:07.213Z,81248.00
2018-09-19T10:18:07.202Z,21280.00
2018-09-19T10:19:07.197Z,83840.00
2018-09-19T10:20:07.188Z,86784.00
2018-09-19T10:21:07.198Z,89792.00
2018-09-19T10:22:07.161Z,79200.00
2018-09-19T10:23:07.156Z,76736.00
2018-09-19T10:24:07.147Z,70784.00
2018-09-19T10:25:07.127Z,72128.00
2018-09-19T10:26:07.150Z,74048.00
2018-09-19T10:27:07.108Z,83392.00
2018-09-19T10:28:07.095Z,69344.00
2018-09-19T10:29:07.091Z,64128.00
2018-09-19T10:30:07.076Z,81376.00
2018-09-19T10:31:07.072Z,79584.00
2018-09-19T10:32:07.073Z,79744.00
2018-09-19T10:33:07.048Z,77696.00
2018-09-19T10:34:07.033Z,18496.00
2018-09-19T10:35:07.022Z,18848.00
2018-09-19T10:36:07.049Z,89760.00
2018-09-19T10:37:07.004Z,65184.00
2018-09-19T10:38:06.997Z,86976.00
2018-09-19T10:39:06.978Z,15640.00
2018-09-19T10:40:06.977Z,19904.00
2018-09-19T10:41:06.958Z,71744.00
2018-09-19T10:42:06.968Z,81248.00
2018-09-19T10:43:06.947Z,75392.00
2018-09-19T10:44:06.924Z,78464.00
2018-09-19T10:45:06.923Z,85696.00
2018-09-19T10:46:06.910Z,77536.00
2018-09-19T10:47:06.923Z,79968.00
2018-09-19T10:48:06.887Z,81888.00
2018-09-19T10:49:06.874Z,83584.00
2018-09-19T10:50:06.867Z,82816.00
2018-09-19T10:51:06.855Z,80896.00
2018-09-19T10:52:06.842Z,58592.00
2018-09-19T10:53:06.857Z,23104.00
2018-09-19T10:54:06.824Z,31232.00
2018-09-19T10:55:06.811Z,78144.00
2018-09-19T10:56:06.797Z,76928.00
2018-09-19T10:57:06.800Z,75936.00
2018-09-19T10:58:06.805Z,78240.00
2018-09-19T10:59:06.773Z,73600.00
2018-09-19T11:00:06.763Z,79520.00
2018-09-19T11:01:06.743Z,75456.00
2018-09-19T11:02:06.742Z,72512.00
2018-09-19T11:03:06.725Z,16648.00
2018-09-19T11:04:06.744Z,24320.00
2018-09-19T11:05:06.707Z,76736.00
2018-09-19T11:06:06.691Z,77632.00
2018-09-19T11:07:06.691Z,79392.00
2018-09-19T11:08:06.676Z,75776.00
2018-09-19T11:09:06.662Z,73248.00
2018-09-19T11:10:06.679Z,72064.00
2018-09-19T11:11:06.638Z,74816.00
2018-09-19T11:12:06.650Z,77408.00
2018-09-19T11:13:06.625Z,75552.00
2018-09-19T11:14:06.607Z,78496.00
2018-09-19T11:15:06.626Z,26880.00
2018-09-19T11:16:06.594Z,78080.00
2018-09-19T11:17:06.635Z,25728.00
2018-09-19T11:18:06.571Z,26240.00
2018-09-19T11:19:06.556Z,44768.00
2018-09-19T11:20:06.578Z,26720.00
2018-09-19T11:21:06.539Z,29856.00
2018-09-19T11:22:06.532Z,32160.00
2018-09-19T11:23:06.517Z,23232.00
2018-09-19T11:24:06.503Z,17164.00
2018-09-19T11:25:06.488Z,19392.00
2018-09-19T11:26:06.504Z,20032.00
2018-09-19T11:27:06.471Z,17668.00
2018-09-19T11:28:06.456Z,18464.00
2018-09-19T11:29:06.456Z,19200.00
2018-09-19T11:30:06.437Z,20736.00
2018-09-19T11:31:06.451Z,21952.00
2018-09-19T11:32:06.422Z,19008.00
2018-09-19T11:33:06.405Z,17428.00
2018-09-19T11:34:06.396Z,19808.00
2018-09-19T11:35:06.382Z,19392.00
2018-09-19T11:36:06.409Z,15092.00
2018-09-19T11:37:06.358Z,15240.00
2018-09-19T11:38:06.355Z,19008.00
2018-09-19T11:39:06.341Z,20352.00
2018-09-19T11:40:06.326Z,72800.00
2018-09-19T11:41:06.317Z,18912.00
2018-09-19T11:42:06.338Z,17392.00
2018-09-19T11:43:06.298Z,17428.00
2018-09-19T11:44:06.292Z,16824.00
2018-09-19T11:45:06.270Z,16456.00
2018-09-19T11:46:06.266Z,17816.00
2018-09-19T11:47:06.251Z,18816.00
2018-09-19T11:48:06.260Z,17852.00
2018-09-19T11:49:06.235Z,20736.00
2018-09-19T11:50:06.221Z,80672.00
2018-09-19T11:51:06.207Z,78464.00
2018-09-19T11:52:06.200Z,78240.00
2018-09-19T11:53:06.214Z,78720.00
2018-09-19T11:54:06.179Z,77920.00
2018-09-19T11:55:06.166Z,79488.00
2018-09-19T11:56:06.155Z,76128.00
2018-09-19T11:57:06.146Z,78144.00
2018-09-19T11:58:06.178Z,82816.00
2018-09-19T11:59:06.157Z,81184.00
2018-09-19T12:00:06.112Z,77632.00
2018-09-19T12:01:06.100Z,78240.00
2018-09-19T12:02:06.198Z,82176.00
2018-09-19T12:03:06.073Z,28096.00
2018-09-19T12:04:06.066Z,41024.00
2018-09-19T12:05:06.084Z,78432.00
2018-09-19T12:06:06.052Z,85408.00
2018-09-19T12:07:06.033Z,85824.00
2018-09-19T12:08:06.024Z,25856.00
2018-09-19T12:09:06.017Z,21824.00
2018-09-19T12:10:06.024Z,22048.00
2018-09-19T12:11:05.997Z,45344.00
2018-09-19T12:12:05.985Z,58144.00
2018-09-19T12:13:05.971Z,41280.00
2018-09-19T12:14:05.966Z,77344.00
2018-09-19T12:15:05.975Z,81120.00
2018-09-19T12:16:05.944Z,76864.00
2018-09-19T12:17:05.926Z,79616.00
2018-09-19T12:18:05.917Z,78176.00
2018-09-19T12:19:05.913Z,77280.00
2018-09-19T12:20:05.898Z,78112.00
2018-09-19T12:21:05.915Z,79296.00
2018-09-19T12:22:05.877Z,82144.00
2018-09-19T12:23:05.863Z,80448.00
2018-09-19T12:24:05.857Z,77856.00
2018-09-19T12:25:05.850Z,76640.00
2018-09-19T12:26:05.915Z,80544.00
2018-09-19T12:27:05.829Z,82816.00
2018-09-19T12:28:05.824Z,81536.00
2018-09-19T12:29:05.802Z,74592.00
2018-09-19T12:30:05.791Z,70304.00
2018-09-19T12:31:05.789Z,72928.00
2018-09-19T12:32:05.806Z,79808.00
2018-09-19T12:33:05.760Z,83232.00
2018-09-19T12:34:05.756Z,80832.00
2018-09-19T12:35:05.737Z,76128.00
2018-09-19T12:36:05.728Z,76352.00
2018-09-19T12:37:05.720Z,76320.00
2018-09-19T12:38:05.733Z,75104.00
2018-09-19T12:39:05.696Z,76480.00
2018-09-19T12:40:05.694Z,74976.00
2018-09-19T12:41:05.681Z,75072.00
2018-09-19T12:42:05.672Z,76448.00
2018-09-19T12:43:05.685Z,78336.00
2018-09-19T12:44:05.652Z,79264.00
2018-09-19T12:45:05.638Z,73888.00
2018-09-19T12:46:05.634Z,72928.00
2018-09-19T12:47:05.617Z,69696.00
2018-09-19T12:48:05.645Z,68608.00
2018-09-19T12:49:05.612Z,68512.00
2018-09-19T12:50:05.586Z,65920.00
2018-09-19T12:51:05.590Z,65088.00
2018-09-19T12:52:05.566Z,65888.00
2018-09-19T12:53:05.566Z,67136.00
2018-09-19T12:54:05.574Z,66560.00
2018-09-19T12:55:05.542Z,64640.00
2018-09-19T12:56:05.527Z,64192.00
2018-09-19T12:57:05.526Z,67040.00
2018-09-19T12:58:05.517Z,61344.00
2018-09-19T12:59:05.497Z,63040.00
2018-09-19T13:00:05.517Z,41952.00
2018-09-19T13:01:05.484Z,45312.00
2018-09-19T13:02:05.466Z,29664.00
2018-09-19T13:03:05.468Z,66752.00
2018-09-19T13:04:05.452Z,67968.00
2018-09-19T13:05:05.460Z,64096.00
2018-09-19T13:06:05.435Z,64832.00
2018-09-19T13:07:05.416Z,66112.00
2018-09-19T13:08:05.406Z,65856.00
2018-09-19T13:09:05.404Z,64512.00
2018-09-19T13:10:05.423Z,65056.00
2018-09-19T13:11:05.378Z,62432.00
2018-09-19T13:12:05.365Z,61472.00
2018-09-19T13:13:05.358Z,60608.00
2018-09-19T13:14:05.343Z,21088.00
2018-09-19T13:15:05.338Z,17176.00
2018-09-19T13:16:05.345Z,47296.00
2018-09-19T13:17:05.316Z,60416.00
2018-09-19T13:18:05.301Z,62432.00
2018-09-19T13:19:05.294Z,63232.00
2018-09-19T13:20:05.289Z,62144.00
2018-09-19T13:21:05.290Z,60224.00
2018-09-19T13:22:05.267Z,59328.00
2018-09-19T13:23:05.253Z,36800.00
2018-09-19T13:24:05.240Z,62048.00
2018-09-19T13:25:05.241Z,63424.00
2018-09-19T13:26:05.248Z,62976.00
2018-09-19T13:27:05.219Z,61696.00
2018-09-19T13:28:05.203Z,60064.00
2018-09-19T13:29:05.201Z,59232.00
2018-09-19T13:30:05.185Z,58784.00
2018-09-19T13:31:05.172Z,57472.00
2018-09-19T13:32:05.196Z,57728.00
2018-09-19T13:33:05.160Z,56864.00
2018-09-19T13:34:05.144Z,56192.00
2018-09-19T13:35:05.143Z,56416.00
2018-09-19T13:36:05.125Z,54528.00
2018-09-19T13:37:05.149Z,56160.00
2018-09-19T13:38:05.113Z,55360.00
2018-09-19T13:39:05.096Z,53504.00
2018-09-19T13:40:05.094Z,51168.00
2018-09-19T13:41:05.073Z,49376.00
2018-09-19T13:42:05.093Z,49152.00
2018-09-19T13:43:05.061Z,48288.00
2018-09-19T13:44:05.053Z,50976.00
2018-09-19T13:45:05.033Z,52864.00
2018-09-19T13:46:05.030Z,52768.00
2018-09-19T13:47:05.018Z,51392.00
2018-09-19T13:48:05.028Z,51584.00
2018-09-19T13:49:04.994Z,52480.00
2018-09-19T13:50:04.986Z,51168.00
2018-09-19T13:51:04.975Z,49696.00
2018-09-19T13:52:04.962Z,48672.00
2018-09-19T13:53:04.954Z,16264.00
2018-09-19T13:54:04.971Z,46528.00
2018-09-19T13:55:04.936Z,48576.00
2018-09-19T13:56:04.918Z,48512.00
2018-09-19T13:57:04.915Z,51456.00
2018-09-19T13:58:04.895Z,48384.00
2018-09-19T13:59:04.888Z,42816.00
2018-09-19T14:00:04.896Z,45376.00
2018-09-19T14:01:04.872Z,48928.00
2018-09-19T14:02:04.874Z,46464.00
2018-09-19T14:03:04.843Z,34528.00
2018-09-19T14:04:04.888Z,44992.00
2018-09-19T14:05:04.828Z,48864.00
2018-09-19T14:06:04.810Z,50144.00
2018-09-19T14:07:04.809Z,45088.00
2018-09-19T14:08:04.790Z,19104.00
2018-09-19T14:09:04.819Z,14364.00
2018-09-19T14:10:04.770Z,16776.00
2018-09-19T14:11:04.763Z,15320.00
2018-09-19T14:12:04.761Z,33472.00
2018-09-19T14:13:04.743Z,48000.00
2018-09-19T14:14:04.736Z,47392.00
2018-09-19T14:15:04.741Z,22432.00
2018-09-19T14:16:04.705Z,42336.00
2018-09-19T14:17:04.700Z,41408.00
2018-09-19T14:18:04.684Z,43520.00
2018-09-19T14:19:04.713Z,44032.00
2018-09-19T14:20:04.667Z,43712.00
2018-09-19T14:21:04.660Z,42336.00
2018-09-19T14:22:04.645Z,40896.00
2018-09-19T14:23:04.636Z,41216.00
2018-09-19T14:24:04.630Z,41344.00
2018-09-19T14:25:04.639Z,42336.00
2018-09-19T14:26:04.599Z,42304.00
2018-09-19T14:27:04.597Z,41056.00
2018-09-19T14:28:04.580Z,39584.00
2018-09-19T14:29:04.571Z,40768.00
2018-09-19T14:30:04.557Z,39808.00
2018-09-19T14:31:04.576Z,38336.00
2018-09-19T14:32:04.543Z,38432.00
2018-09-19T14:33:04.527Z,38080.00
2018-09-19T14:34:04.517Z,37376.00
2018-09-19T14:35:04.504Z,37184.00
2018-09-19T14:36:04.528Z,35104.00
2018-09-19T14:37:04.488Z,36000.00
2018-09-19T14:38:04.471Z,21536.00
2018-09-19T14:39:04.469Z,12224.00
2018-09-19T14:40:04.456Z,34080.00
2018-09-19T14:41:04.441Z,30400.00
2018-09-19T14:42:04.453Z,32928.00
2018-09-19T14:43:04.423Z,30144.00
2018-09-19T14:44:04.416Z,25248.00
2018-09-19T14:45:04.396Z,24960.00
2018-09-19T14:46:04.387Z,24992.00
2018-09-19T14:47:04.407Z,23264.00
2018-09-19T14:48:04.371Z,18896.00
2018-09-19T14:49:04.362Z,17408.00
2018-09-19T14:50:04.342Z,12972.00
2018-09-19T14:51:04.333Z,10296.00
2018-09-19T14:52:04.326Z,9016.00
2018-09-19T14:53:04.334Z,12288.00
2018-09-19T14:54:04.325Z,11368.00
2018-09-19T14:55:04.296Z,22200.00
2018-09-19T14:56:04.285Z,11436.00
2018-09-19T14:57:04.263Z,11216.00
2018-09-19T14:58:04.282Z,11480.00
2018-09-19T14:59:04.254Z,10708.00
2018-09-19T15:00:04.231Z,11236.00
2018-09-19T15:01:04.231Z,10856.00
2018-09-19T15:02:04.210Z,11276.00
2018-09-19T15:03:04.207Z,10776.00
2018-09-19T15:04:04.215Z,10464.00
2018-09-19T15:05:04.185Z,9620.00
2018-09-19T15:06:04.174Z,9732.00
2018-09-19T15:07:04.161Z,8620.00
2018-09-19T15:08:04.177Z,8748.00
2018-09-19T15:09:04.160Z,9344.00
2018-09-19T15:10:04.122Z,7548.00
2018-09-19T15:11:04.119Z,7544.00
2018-09-19T15:12:04.101Z,6908.00
2018-09-19T15:13:04.097Z,6844.00
2018-09-19T15:14:04.107Z,6912.00
2018-09-19T15:15:04.073Z,6816.00
2018-09-19T15:16:04.062Z,6864.00
2018-09-19T15:17:04.043Z,7184.00
2018-09-19T15:18:04.052Z,7452.00
2018-09-19T15:19:04.029Z,7752.00
2018-09-19T15:20:04.034Z,7868.00
2018-09-19T15:21:03.998Z,8336.00
2018-09-19T15:22:03.992Z,8568.00
2018-09-19T15:23:03.982Z,8740.00
2018-09-19T15:24:03.970Z,8896.00
2018-09-19T15:25:03.985Z,9012.00
2018-09-19T15:26:03.950Z,9108.00
2018-09-19T15:27:03.930Z,9320.00
2018-09-19T15:28:03.921Z,9192.00
2018-09-19T15:29:03.914Z,9320.00
2018-09-19T15:30:03.903Z,9436.00
2018-09-19T15:31:03.910Z,9372.00
2018-09-19T15:32:03.874Z,9224.00
2018-09-19T15:33:03.869Z,9204.00
2018-09-19T15:34:03.859Z,8836.00
2018-09-19T15:35:03.849Z,9036.00
2018-09-19T15:36:03.907Z,8836.00
2018-09-19T15:37:03.825Z,8884.00
2018-09-19T15:38:03.814Z,8884.00
2018-09-19T15:39:03.793Z,8912.00
2018-09-19T15:40:03.784Z,8868.00
2018-09-19T15:41:03.796Z,8856.00
2018-09-19T15:42:03.765Z,8684.00
2018-09-19T15:43:03.751Z,8360.00
2018-09-19T15:44:03.736Z,8188.00
2018-09-19T15:45:03.733Z,7784.00
2018-09-19T15:46:03.723Z,7488.00
2018-09-19T15:47:03.725Z,7336.00
2018-09-19T15:48:03.693Z,7184.00
2018-09-19T15:49:03.695Z,7376.00
2018-09-19T15:50:03.677Z,7796.00
2018-09-19T15:51:03.663Z,8004.00
2018-09-19T15:52:03.678Z,8108.00
2018-09-19T15:53:03.639Z,8212.00
2018-09-19T15:54:03.628Z,8104.00
2018-09-19T15:55:03.614Z,7764.00
2018-09-19T15:56:03.598Z,7232.00
2018-09-19T15:57:03.607Z,7080.00
2018-09-19T15:58:03.603Z,6836.00
2018-09-19T15:59:03.570Z,6768.00
2018-09-19T16:00:03.562Z,6476.00
2018-09-19T16:01:03.542Z,5940.00
2018-09-19T16:02:03.537Z,5600.00
2018-09-19T16:03:03.546Z,5512.00
2018-09-19T16:04:03.507Z,5500.00
2018-09-19T16:05:03.507Z,5488.00
2018-09-19T16:06:03.511Z,5404.00
2018-09-19T16:07:03.518Z,5312.00
2018-09-19T16:08:03.464Z,5180.00
2018-09-19T16:09:03.456Z,4920.00
2018-09-19T16:10:03.457Z,4708.00
2018-09-19T16:11:03.437Z,4724.00
2018-09-19T16:12:03.427Z,4688.00
2018-09-19T16:13:03.434Z,4732.00
2018-09-19T16:14:03.397Z,4872.00
2018-09-19T16:15:03.395Z,5024.00
2018-09-19T16:16:03.376Z,5124.00
2018-09-19T16:17:03.374Z,5172.00
2018-09-19T16:18:03.391Z,5204.00
2018-09-19T16:19:03.341Z,5248.00
2018-09-19T16:20:03.337Z,5288.00
2018-09-19T16:21:03.356Z,5280.00
2018-09-19T16:22:03.319Z,5276.00
2018-09-19T16:23:03.295Z,5296.00
2018-09-19T16:24:03.315Z,5336.00
2018-09-19T16:25:03.280Z,5376.00
2018-09-19T16:26:03.262Z,5376.00
2018-09-19T16:27:03.255Z,5360.00
2018-09-19T16:28:03.240Z,5336.00
2018-09-19T16:29:03.260Z,5320.00
2018-09-19T16:30:03.226Z,5332.00
2018-09-19T16:31:03.212Z,5324.00
2018-09-19T16:32:03.205Z,5312.00
2018-09-19T16:33:03.184Z,5252.00
2018-09-19T16:34:03.196Z,5208.00
2018-09-19T16:35:03.171Z,5176.00
2018-09-19T16:36:03.151Z,5092.00
2018-09-19T16:37:03.147Z,4984.00
2018-09-19T16:38:03.177Z,4872.00
2018-09-19T16:39:03.157Z,4780.00
2018-09-19T16:40:03.105Z,4636.00
2018-09-19T16:41:03.104Z,4436.00
2018-09-19T16:42:03.094Z,4208.00
2018-09-19T16:43:03.079Z,3944.00
2018-09-19T16:44:03.065Z,3720.00
2018-09-19T16:45:03.084Z,3496.00
2018-09-19T16:46:03.046Z,3288.00
2018-09-19T16:47:03.035Z,3156.00
2018-09-19T16:48:03.024Z,3132.00
2018-09-19T16:49:03.009Z,3124.00
2018-09-19T16:50:02.998Z,3032.00
2018-09-19T16:51:03.013Z,2932.00
2018-09-19T16:52:02.982Z,2828.00
2018-09-19T16:53:03.052Z,2716.00
2018-09-19T16:54:02.954Z,2648.00
2018-09-19T16:55:02.946Z,2604.00
2018-09-19T16:56:02.958Z,2560.00
2018-09-19T16:57:02.921Z,2480.00
2018-09-19T16:58:02.911Z,2396.00
2018-09-19T16:59:02.939Z,2284.00
2018-09-19T17:00:03.820Z,2168.00
2018-09-19T17:01:02.911Z,2040.00
2018-09-19T17:02:02.870Z,1956.00
2018-09-19T17:03:02.849Z,1876.00
2018-09-19T17:04:02.839Z,1776.00
2018-09-19T17:05:02.831Z,1668.00
2018-09-19T17:06:02.822Z,1564.00
2018-09-19T17:07:02.833Z,1456.00
2018-09-19T17:08:02.800Z,1364.00
2018-09-19T17:09:02.781Z,1280.00
2018-09-19T17:10:02.774Z,1208.00
2018-09-19T17:11:02.759Z,1140.00
2018-09-19T17:12:02.743Z,1084.00
2018-09-19T17:13:02.757Z,1036.00
2018-09-19T17:14:02.724Z,984.00
2018-09-19T17:15:02.708Z,940.00
2018-09-19T17:16:02.707Z,892.00
2018-09-19T17:17:02.685Z,852.00
2018-09-19T17:18:02.708Z,808.00
2018-09-19T17:19:02.669Z,772.00
2018-09-19T17:20:02.662Z,728.00
2018-09-19T17:21:02.643Z,692.00
2018-09-19T17:22:02.642Z,656.00
2018-09-19T17:23:02.618Z,616.00
2018-09-19T17:24:02.629Z,576.00
2018-09-19T17:25:02.600Z,536.00
2018-09-19T17:26:02.593Z,500.00
2018-09-19T17:27:02.571Z,464.00
2018-09-19T17:28:02.601Z,432.00
2018-09-19T17:29:02.555Z,408.00
2018-09-19T17:30:02.539Z,380.00
2018-09-19T17:31:02.530Z,356.00
2018-09-19T17:32:02.518Z,332.00
2018-09-19T17:33:02.523Z,308.00
2018-09-19T17:34:02.533Z,288.00
2018-09-19T17:35:02.483Z,260.00
2018-09-19T17:36:02.476Z,240.00
2018-09-19T17:37:02.470Z,220.00
2018-09-19T17:38:02.455Z,200.00
2018-09-19T17:39:02.442Z,180.00
2018-09-19T17:40:02.455Z,164.00
2018-09-19T17:41:02.429Z,152.00
2018-09-19T17:42:02.414Z,136.00
2018-09-19T17:43:02.395Z,120.00
2018-09-19T17:44:02.388Z,108.00
2018-09-19T17:45:02.374Z,92.00
2018-09-19T17:46:02.384Z,84.00
2018-09-19T17:47:02.355Z,72.00
2018-09-19T17:48:02.341Z,64.00
2018-09-19T17:49:02.333Z,56.00
2018-09-19T17:50:02.326Z,48.00
2018-09-19T17:51:02.332Z,40.00
2018-09-19T17:52:02.299Z,36.00
2018-09-19T17:53:02.287Z,32.00
2018-09-19T17:54:02.281Z,24.00
2018-09-19T17:55:02.261Z,20.00